sensor_id;sensor_type;location;lat;lon;timestamp;pressure;altitude;pressure_sealevel;temperature;humidity
53940;BME280;39850;43.324;21.916;2024-02-14T00:06:36;992.0;;;6.2;92.0
53940;BME280;39850;43.324;21.916;2024-02-14T00:11:12;992.0;;;6.2;92.0
53940;BME280;39850;43.324;21.916;2024-02-14T00:15:49;992.0;;;6.4;91.0
53940;BME280;39850;43.324;21.916;2024-02-14T00:20:25;992.0;;;6.4;91.0
53940;BME280;39850;43.324;21.916;2024-02-14T00:25:02;992.0;;;6.4;91.0
53940;BME280;39850;43.324;21.916;2024-02-14T00:29:39;992.0;;;6.4;91.0
53940;BME280;39850;43.324;21.916;2024-02-14T00:34:16;992.0;;;6.5;91.0
53940;BME280;39850;43.324;21.916;2024-02-14T00:38:52;992.0;;;6.5;91.0
53940;BME280;39850;43.324;21.916;2024-02-14T01:15:47;992.0;;;7.5;84.0
53940;BME280;39850;43.324;21.916;2024-02-14T01:20:23;992.0;;;7.5;84.0
53940;BME280;39850;43.324;21.916;2024-02-14T01:25:00;992.0;;;7.5;84.0
53940;BME280;39850;43.324;21.916;2024-02-14T01:29:37;992.0;;;7.5;84.0
53940;BME280;39850;43.324;21.916;2024-02-14T01:34:14;992.0;;;7.5;84.0
53940;BME280;39850;43.324;21.916;2024-02-14T01:38:50;992.0;;;7.5;84.0
53940;BME280;39850;43.324;21.916;2024-02-14T01:43:27;992.0;;;7.8;84.0
53940;BME280;39850;43.324;21.916;2024-02-14T01:48:08;992.0;;;7.8;84.0
53940;BME280;39850;43.324;21.916;2024-02-14T01:52:45;992.0;;;8.2;83.0
53940;BME280;39850;43.324;21.916;2024-02-14T01:57:24;992.0;;;8.2;83.0
53940;BME280;39850;43.324;21.916;2024-02-14T02:02:01;992.0;;;8.2;83.0
53940;BME280;39850;43.324;21.916;2024-02-14T02:34:19;993.0;;;7.1;81.0
53940;BME280;39850;43.324;21.916;2024-02-14T02:38:56;993.0;;;7.1;81.0
53940;BME280;39850;43.324;21.916;2024-02-14T02:43:36;993.0;;;7.1;81.0
53940;BME280;39850;43.324;21.916;2024-02-14T02:48:12;993.0;;;7.1;81.0
53940;BME280;39850;43.324;21.916;2024-02-14T02:52:49;993.0;;;7.1;81.0
53940;BME280;39850;43.324;21.916;2024-02-14T02:57:25;993.0;;;7.1;81.0
53940;BME280;39850;43.324;21.916;2024-02-14T03:02:03;993.0;;;7.1;81.0
53940;BME280;39850;43.324;21.916;2024-02-14T03:06:39;993.0;;;7.1;81.0
53940;BME280;39850;43.324;21.916;2024-02-14T03:11:16;993.0;;;7.1;81.0
53940;BME280;39850;43.324;21.916;2024-02-14T03:15:52;993.0;;;7.1;81.0
53940;BME280;39850;43.324;21.916;2024-02-14T03:20:29;993.0;;;7.1;81.0
53940;BME280;39850;43.324;21.916;2024-02-14T03:57:20;994.0;;;7.1;79.0
53940;BME280;39850;43.324;21.916;2024-02-14T04:01:56;994.0;;;7.1;79.0
53940;BME280;39850;43.324;21.916;2024-02-14T04:06:33;994.0;;;7.1;78.0
53940;BME280;39850;43.324;21.916;2024-02-14T04:11:09;994.0;;;7.1;78.0
53940;BME280;39850;43.324;21.916;2024-02-14T04:15:47;994.0;;;7.1;78.0
53940;BME280;39850;43.324;21.916;2024-02-14T04:20:24;994.0;;;7.1;78.0
53940;BME280;39850;43.324;21.916;2024-02-14T04:25:00;994.0;;;7.1;77.0
53940;BME280;39850;43.324;21.916;2024-02-14T04:29:37;994.0;;;7.1;77.0
53940;BME280;39850;43.324;21.916;2024-02-14T04:34:13;994.0;;;7.1;77.0
53940;BME280;39850;43.324;21.916;2024-02-14T04:38:51;994.0;;;7.1;77.0
53940;BME280;39850;43.324;21.916;2024-02-14T05:24:54;995.0;;;5.6;79.0
53940;BME280;39850;43.324;21.916;2024-02-14T05:29:31;995.0;;;5.6;79.0
53940;BME280;39850;43.324;21.916;2024-02-14T05:34:08;995.0;;;5.6;79.0
53940;BME280;39850;43.324;21.916;2024-02-14T05:38:44;995.0;;;5.6;79.0
53940;BME280;39850;43.324;21.916;2024-02-14T05:43:20;995.0;;;5.6;79.0
53940;BME280;39850;43.324;21.916;2024-02-14T05:47:56;995.0;;;5.6;79.0
53940;BME280;39850;43.324;21.916;2024-02-14T05:52:32;995.0;;;5.6;79.0
53940;BME280;39850;43.324;21.916;2024-02-14T06:34:02;996.0;;;3.7;84.0
53940;BME280;39850;43.324;21.916;2024-02-14T06:38:39;996.0;;;3.7;84.0
53940;BME280;39850;43.324;21.916;2024-02-14T06:43:15;996.0;;;3.7;84.0
53940;BME280;39850;43.324;21.916;2024-02-14T06:47:51;996.0;;;3.6;84.0
53940;BME280;39850;43.324;21.916;2024-02-14T06:52:28;996.0;;;3.6;84.0
53940;BME280;39850;43.324;21.916;2024-02-14T06:57:05;996.0;;;3.6;84.0
53940;BME280;39850;43.324;21.916;2024-02-14T07:01:41;996.0;;;3.6;84.0
53940;BME280;39850;43.324;21.916;2024-02-14T07:06:18;996.0;;;3.5;85.0
53940;BME280;39850;43.324;21.916;2024-02-14T07:10:55;996.0;;;3.5;85.0
53940;BME280;39850;43.324;21.916;2024-02-14T08:15:27;996.0;;;4.4;78.0
53940;BME280;39850;43.324;21.916;2024-02-14T08:20:08;996.0;;;4.4;78.0
53940;BME280;39850;43.324;21.916;2024-02-14T08:24:45;996.0;;;4.4;78.0
53940;BME280;39850;43.324;21.916;2024-02-14T08:29:23;996.0;;;4.4;78.0
53940;BME280;39850;43.324;21.916;2024-02-14T08:33:59;996.0;;;4.4;78.0
53940;BME280;39850;43.324;21.916;2024-02-14T08:38:35;996.0;;;4.4;78.0
53940;BME280;39850;43.324;21.916;2024-02-14T08:43:11;996.0;;;4.4;78.0
53940;BME280;39850;43.324;21.916;2024-02-14T09:15:31;997.0;;;6.5;69.0
53940;BME280;39850;43.324;21.916;2024-02-14T09:20:11;997.0;;;6.5;69.0
53940;BME280;39850;43.324;21.916;2024-02-14T09:24:51;997.0;;;6.8;68.0
53940;BME280;39850;43.324;21.916;2024-02-14T09:29:27;997.0;;;6.8;68.0
53940;BME280;39850;43.324;21.916;2024-02-14T09:34:04;997.0;;;6.8;68.0
53940;BME280;39850;43.324;21.916;2024-02-14T09:38:41;997.0;;;6.5;68.0
53940;BME280;39850;43.324;21.916;2024-02-14T09:43:38;997.0;;;6.5;68.0
53940;BME280;39850;43.324;21.916;2024-02-14T09:48:24;997.0;;;6.6;67.0
53940;BME280;39850;43.324;21.916;2024-02-14T09:53:05;997.0;;;6.6;67.0
53940;BME280;39850;43.324;21.916;2024-02-14T09:57:48;997.0;;;6.2;68.0
53940;BME280;39850;43.324;21.916;2024-02-14T10:02:25;997.0;;;6.2;68.0
53940;BME280;39850;43.324;21.916;2024-02-14T10:34:51;996.0;;;7.2;64.0
53940;BME280;39850;43.324;21.916;2024-02-14T10:39:35;996.0;;;7.2;64.0
53940;BME280;39850;43.324;21.916;2024-02-14T10:44:12;996.0;;;7.2;64.0
53940;BME280;39850;43.324;21.916;2024-02-14T10:49:04;996.0;;;7.2;63.0
53940;BME280;39850;43.324;21.916;2024-02-14T10:53:52;996.0;;;7.2;63.0
53940;BME280;39850;43.324;21.916;2024-02-14T10:58:35;996.0;;;7.2;63.0
53940;BME280;39850;43.324;21.916;2024-02-14T11:03:14;996.0;;;7.2;63.0
53940;BME280;39850;43.324;21.916;2024-02-14T11:07:51;996.0;;;7.2;63.0
53940;BME280;39850;43.324;21.916;2024-02-14T11:12:34;996.0;;;7.2;63.0
53940;BME280;39850;43.324;21.916;2024-02-14T11:17:13;996.0;;;7.2;63.0
53940;BME280;39850;43.324;21.916;2024-02-14T11:21:50;996.0;;;7.2;63.0
53940;BME280;39850;43.324;21.916;2024-02-14T12:08:08;996.0;;;7.2;60.0
53940;BME280;39850;43.324;21.916;2024-02-14T12:12:48;996.0;;;7.2;60.0
53940;BME280;39850;43.324;21.916;2024-02-14T12:17:24;996.0;;;7.2;60.0
53940;BME280;39850;43.324;21.916;2024-02-14T12:22:01;996.0;;;7.2;60.0
53940;BME280;39850;43.324;21.916;2024-02-14T12:26:42;996.0;;;7.2;60.0
53940;BME280;39850;43.324;21.916;2024-02-14T12:31:24;996.0;;;7.2;60.0
53940;BME280;39850;43.324;21.916;2024-02-14T13:17:32;996.0;;;7.3;57.0
53940;BME280;39850;43.324;21.916;2024-02-14T13:22:09;996.0;;;7.3;57.0
53940;BME280;39850;43.324;21.916;2024-02-14T13:26:45;996.0;;;7.3;57.0
53940;BME280;39850;43.324;21.916;2024-02-14T13:31:22;996.0;;;7.3;57.0
53940;BME280;39850;43.324;21.916;2024-02-14T13:35:58;996.0;;;7.4;58.0
53940;BME280;39850;43.324;21.916;2024-02-14T13:40:35;996.0;;;7.4;58.0
53940;BME280;39850;43.324;21.916;2024-02-14T13:45:11;996.0;;;7.4;58.0
53940;BME280;39850;43.324;21.916;2024-02-14T13:49:47;996.0;;;7.4;58.0
53940;BME280;39850;43.324;21.916;2024-02-14T13:54:24;996.0;;;7.4;58.0
53940;BME280;39850;43.324;21.916;2024-02-14T13:59:01;996.0;;;7.4;58.0
53940;BME280;39850;43.324;21.916;2024-02-14T14:03:37;996.0;;;7.4;58.0
53940;BME280;39850;43.324;21.916;2024-02-14T14:35:51;996.0;;;6.8;58.0
53940;BME280;39850;43.324;21.916;2024-02-14T14:40:28;996.0;;;6.8;58.0
53940;BME280;39850;43.324;21.916;2024-02-14T14:45:07;996.0;;;6.8;58.0
53940;BME280;39850;43.324;21.916;2024-02-14T14:49:43;996.0;;;6.8;58.0
53940;BME280;39850;43.324;21.916;2024-02-14T14:54:20;996.0;;;6.8;58.0
53940;BME280;39850;43.324;21.916;2024-02-14T14:58:56;996.0;;;6.8;58.0
53940;BME280;39850;43.324;21.916;2024-02-14T15:03:33;996.0;;;6.8;58.0
53940;BME280;39850;43.324;21.916;2024-02-14T15:08:09;996.0;;;6.8;59.0
53940;BME280;39850;43.324;21.916;2024-02-14T15:12:45;996.0;;;6.8;59.0
53940;BME280;39850;43.324;21.916;2024-02-14T15:17:22;996.0;;;6.8;59.0
53940;BME280;39850;43.324;21.916;2024-02-14T15:21:59;996.0;;;6.8;59.0
53940;BME280;39850;43.324;21.916;2024-02-14T16:17:13;997.0;;;5.6;61.0
53940;BME280;39850;43.324;21.916;2024-02-14T16:21:49;997.0;;;5.6;61.0
53940;BME280;39850;43.324;21.916;2024-02-14T16:26:26;997.0;;;5.6;61.0
53940;BME280;39850;43.324;21.916;2024-02-14T16:31:02;997.0;;;5.6;61.0
53940;BME280;39850;43.324;21.916;2024-02-14T16:35:38;997.0;;;5.6;61.0
53940;BME280;39850;43.324;21.916;2024-02-14T16:40:14;997.0;;;5.6;61.0
53940;BME280;39850;43.324;21.916;2024-02-14T16:44:52;997.0;;;5.6;61.0
53940;BME280;39850;43.324;21.916;2024-02-14T17:17:07;998.0;;;6.4;59.0
53940;BME280;39850;43.324;21.916;2024-02-14T17:21:44;998.0;;;6.4;59.0
53940;BME280;39850;43.324;21.916;2024-02-14T17:26:21;998.0;;;6.8;59.0
53940;BME280;39850;43.324;21.916;2024-02-14T17:30:57;998.0;;;6.8;59.0
53940;BME280;39850;43.324;21.916;2024-02-14T17:35:34;998.0;;;6.8;59.0
53940;BME280;39850;43.324;21.916;2024-02-14T17:40:12;998.0;;;7.2;59.0
53940;BME280;39850;43.324;21.916;2024-02-14T17:44:49;998.0;;;7.2;59.0
53940;BME280;39850;43.324;21.916;2024-02-14T17:49:25;998.0;;;7.2;58.0
53940;BME280;39850;43.324;21.916;2024-02-14T17:54:02;998.0;;;7.2;58.0
53940;BME280;39850;43.324;21.916;2024-02-14T17:58:39;998.0;;;7.2;57.0
53940;BME280;39850;43.324;21.916;2024-02-14T18:03:15;998.0;;;7.2;57.0
53940;BME280;39850;43.324;21.916;2024-02-14T18:40:09;998.0;;;6.2;60.0
53940;BME280;39850;43.324;21.916;2024-02-14T18:44:46;998.0;;;6.2;60.0
53940;BME280;39850;43.324;21.916;2024-02-14T18:49:22;998.0;;;6.2;60.0
53940;BME280;39850;43.324;21.916;2024-02-14T18:53:59;998.0;;;6.2;60.0
53940;BME280;39850;43.324;21.916;2024-02-14T18:58:35;998.0;;;6.2;59.0
53940;BME280;39850;43.324;21.916;2024-02-14T19:03:11;998.0;;;6.2;59.0
53940;BME280;39850;43.324;21.916;2024-02-14T19:07:47;998.0;;;6.6;59.0
53940;BME280;39850;43.324;21.916;2024-02-14T19:12:24;998.0;;;6.6;59.0
53940;BME280;39850;43.324;21.916;2024-02-14T19:17:00;998.0;;;7.0;59.0
53940;BME280;39850;43.324;21.916;2024-02-14T19:21:36;998.0;;;7.0;59.0
53940;BME280;39850;43.324;21.916;2024-02-14T19:26:12;998.0;;;7.0;59.0
53940;BME280;39850;43.324;21.916;2024-02-14T19:58:25;999.0;;;7.3;59.0
53940;BME280;39850;43.324;21.916;2024-02-14T20:03:02;999.0;;;7.3;59.0
53940;BME280;39850;43.324;21.916;2024-02-14T20:07:38;999.0;;;7.3;59.0
53940;BME280;39850;43.324;21.916;2024-02-14T20:12:16;999.0;;;7.3;59.0
53940;BME280;39850;43.324;21.916;2024-02-14T20:16:53;999.0;;;7.3;59.0
53940;BME280;39850;43.324;21.916;2024-02-14T20:21:31;999.0;;;7.3;59.0
53940;BME280;39850;43.324;21.916;2024-02-14T20:26:07;999.0;;;7.3;59.0
53940;BME280;39850;43.324;21.916;2024-02-14T20:30:44;999.0;;;7.3;59.0
53940;BME280;39850;43.324;21.916;2024-02-14T20:35:21;999.0;;;7.3;59.0
53940;BME280;39850;43.324;21.916;2024-02-14T20:39:58;999.0;;;7.3;59.0
53940;BME280;39850;43.324;21.916;2024-02-14T20:44:34;999.0;;;7.3;59.0
53940;BME280;39850;43.324;21.916;2024-02-14T21:21:24;999.0;;;6.2;62.0
53940;BME280;39850;43.324;21.916;2024-02-14T21:26:00;999.0;;;6.2;62.0
53940;BME280;39850;43.324;21.916;2024-02-14T21:30:36;999.0;;;6.2;61.0
53940;BME280;39850;43.324;21.916;2024-02-14T21:35:13;999.0;;;6.2;61.0
53940;BME280;39850;43.324;21.916;2024-02-14T21:39:49;999.0;;;6.2;61.0
53940;BME280;39850;43.324;21.916;2024-02-14T21:44:26;999.0;;;6.2;61.0
53940;BME280;39850;43.324;21.916;2024-02-14T21:49:02;999.0;;;6.2;61.0
53940;BME280;39850;43.324;21.916;2024-02-14T21:53:39;999.0;;;6.2;61.0
53940;BME280;39850;43.324;21.916;2024-02-14T21:58:15;999.0;;;6.2;61.0
53940;BME280;39850;43.324;21.916;2024-02-14T22:02:51;999.0;;;6.2;61.0
53940;BME280;39850;43.324;21.916;2024-02-14T22:39:43;999.0;;;5.5;65.0
53940;BME280;39850;43.324;21.916;2024-02-14T22:44:19;999.0;;;5.5;65.0
53940;BME280;39850;43.324;21.916;2024-02-14T22:48:55;999.0;;;5.2;65.0
53940;BME280;39850;43.324;21.916;2024-02-14T22:53:33;999.0;;;5.2;65.0
53940;BME280;39850;43.324;21.916;2024-02-14T22:58:10;999.0;;;5.0;65.0
53940;BME280;39850;43.324;21.916;2024-02-14T23:02:47;999.0;;;5.0;65.0
53940;BME280;39850;43.324;21.916;2024-02-14T23:07:23;999.0;;;4.7;65.0
53940;BME280;39850;43.324;21.916;2024-02-14T23:11:59;999.0;;;4.7;65.0
53940;BME280;39850;43.324;21.916;2024-02-14T23:16:36;999.0;;;4.7;65.0
53940;BME280;39850;43.324;21.916;2024-02-14T23:21:13;999.0;;;4.4;66.0
53940;BME280;39850;43.324;21.916;2024-02-14T23:25:50;999.0;;;4.4;66.0
53940;BME280;39850;43.324;21.916;2024-02-14T23:58:04;999.0;;;4.5;70.0
